JBU8691 CYMX-KJFK
Flight info
| Callsign | JBU8691 |
|---|---|
| Flight time | 1h 14m |
| Altitude | 36000 |
| Route | FAWNS DCT BUGSY DCT ZAVIL PUCKY1 |
| Aircraft | A320/M-SDE3FGHIRWY/LB1 |
Departure
| Time | 2026-05-07 16:55 |
|---|---|
| Airport | Montreal Mirabel International Airport (CYMX) |
Arrival
| Time | 2026-05-07 18:09 |
|---|---|
| Airport | John F. Kennedy International Airport (KJFK) |
| Time | Latitude | Longitude | Altitude | Speed | Heading |
|---|---|---|---|---|---|
| 2026-05-07 16:26 | 45.67931 | -74.02888 | 272 ft | 0 kts | 9° |
| 2026-05-07 16:49 | 45.67932 | -74.02888 | 272 ft | 1 kts | 9° |
| 2026-05-07 16:49 | 45.67952 | -74.02900 | 272 ft | 4 kts | 296° |
| 2026-05-07 16:49 | 45.67941 | -74.02946 | 272 ft | 7 kts | 234° |
| 2026-05-07 16:50 | 45.67888 | -74.02982 | 272 ft | 10 kts | 173° |
| 2026-05-07 16:50 | 45.67827 | -74.02920 | 272 ft | 12 kts | 137° |
| 2026-05-07 16:50 | 45.67762 | -74.02832 | 272 ft | 14 kts | 134° |
| 2026-05-07 16:50 | 45.67691 | -74.02727 | 275 ft | 16 kts | 134° |
| 2026-05-07 16:51 | 45.67599 | -74.02630 | 274 ft | 18 kts | 156° |
| 2026-05-07 16:51 | 45.67489 | -74.02564 | 272 ft | 8 kts | 158° |
| 2026-05-07 16:51 | 45.67435 | -74.02593 | 273 ft | 11 kts | 231° |
| 2026-05-07 16:51 | 45.67395 | -74.02728 | 273 ft | 17 kts | 250° |
| 2026-05-07 16:52 | 45.67353 | -74.02893 | 273 ft | 18 kts | 250° |
| 2026-05-07 16:52 | 45.67308 | -74.03069 | 273 ft | 20 kts | 249° |
| 2026-05-07 16:52 | 45.67259 | -74.03257 | 273 ft | 21 kts | 250° |
| 2026-05-07 16:52 | 45.67208 | -74.03456 | 273 ft | 22 kts | 250° |
| 2026-05-07 16:53 | 45.67155 | -74.03664 | 273 ft | 23 kts | 250° |
| 2026-05-07 16:53 | 45.67099 | -74.03881 | 273 ft | 24 kts | 250° |
| 2026-05-07 16:53 | 45.67045 | -74.04090 | 278 ft | 20 kts | 249° |
| 2026-05-07 16:53 | 45.66951 | -74.04178 | 273 ft | 18 kts | 187° |
| 2026-05-07 16:54 | 45.66822 | -74.04204 | 273 ft | 20 kts | 188° |
| 2026-05-07 16:54 | 45.66679 | -74.04241 | 273 ft | 22 kts | 192° |
| 2026-05-07 16:54 | 45.66596 | -74.04293 | 275 ft | 9 kts | 253° |
| 2026-05-07 16:54 | 45.66607 | -74.04428 | 273 ft | 32 kts | 278° |
| 2026-05-07 16:55 | 45.66680 | -74.05154 | 271 ft | 113 kts | 279° |
| 2026-05-07 16:55 | 45.66830 | -74.06529 | 461 ft | 155 kts | 277° |
| 2026-05-07 16:55 | 45.67015 | -74.08138 | 1152 ft | 173 kts | 276° |
| 2026-05-07 16:55 | 45.67187 | -74.09868 | 1884 ft | 182 kts | 276° |
| 2026-05-07 16:56 | 45.67078 | -74.11756 | 2172 ft | 206 kts | 248° |
| 2026-05-07 16:56 | 45.66109 | -74.13418 | 2591 ft | 235 kts | 218° |
| 2026-05-07 16:56 | 45.62723 | -74.13906 | 4192 ft | 264 kts | 178° |
| 2026-05-07 16:57 | 45.60896 | -74.13679 | 5130 ft | 264 kts | 181° |
| 2026-05-07 16:57 | 45.59051 | -74.13562 | 6018 ft | 265 kts | 182° |
| 2026-05-07 16:57 | 45.57185 | -74.13473 | 6795 ft | 272 kts | 183° |
| 2026-05-07 16:57 | 45.55279 | -74.13383 | 7621 ft | 277 kts | 182° |
| 2026-05-07 16:58 | 45.53353 | -74.13271 | 8495 ft | 279 kts | 182° |
| 2026-05-07 16:58 | 45.51400 | -74.13138 | 9330 ft | 282 kts | 181° |
| 2026-05-07 16:58 | 45.49426 | -74.12994 | 10104 ft | 286 kts | 181° |
| 2026-05-07 16:58 | 45.47375 | -74.12841 | 10495 ft | 307 kts | 181° |
| 2026-05-07 16:59 | 45.45165 | -74.12677 | 10708 ft | 329 kts | 181° |
| 2026-05-07 16:59 | 45.42824 | -74.12495 | 11189 ft | 341 kts | 181° |
| 2026-05-07 16:59 | 45.40438 | -74.12299 | 11883 ft | 345 kts | 181° |
| 2026-05-07 16:59 | 45.38018 | -74.12097 | 12622 ft | 349 kts | 181° |
| 2026-05-07 17:00 | 45.35591 | -74.11897 | 13351 ft | 351 kts | 182° |
| 2026-05-07 17:00 | 45.33146 | -74.11701 | 14022 ft | 353 kts | 182° |
| 2026-05-07 17:00 | 45.30689 | -74.11506 | 14661 ft | 355 kts | 182° |
| 2026-05-07 17:00 | 45.28217 | -74.11314 | 15288 ft | 357 kts | 182° |
| 2026-05-07 17:01 | 45.25730 | -74.11121 | 15933 ft | 359 kts | 183° |
| 2026-05-07 17:01 | 45.23231 | -74.10924 | 16572 ft | 361 kts | 183° |
| 2026-05-07 17:01 | 45.20717 | -74.10723 | 17228 ft | 363 kts | 184° |
| 2026-05-07 17:01 | 45.18189 | -74.10523 | 17895 ft | 365 kts | 184° |
| 2026-05-07 17:02 | 45.15645 | -74.10322 | 18515 ft | 366 kts | 184° |
| 2026-05-07 17:02 | 45.13094 | -74.10120 | 19094 ft | 369 kts | 184° |
| 2026-05-07 17:02 | 45.10522 | -74.09916 | 19692 ft | 371 kts | 185° |
| 2026-05-07 17:02 | 45.07934 | -74.09709 | 20286 ft | 373 kts | 185° |
| 2026-05-07 17:03 | 45.05335 | -74.09500 | 20860 ft | 375 kts | 185° |
| 2026-05-07 17:03 | 45.02721 | -74.09291 | 21413 ft | 377 kts | 186° |
| 2026-05-07 17:03 | 45.00098 | -74.09107 | 21966 ft | 376 kts | 188° |
| 2026-05-07 17:03 | 44.97514 | -74.09356 | 22478 ft | 370 kts | 196° |
| 2026-05-07 17:04 | 44.94960 | -74.09851 | 23005 ft | 371 kts | 196° |
| 2026-05-07 17:04 | 44.92395 | -74.10347 | 23493 ft | 373 kts | 196° |
| 2026-05-07 17:04 | 44.89813 | -74.10841 | 23895 ft | 375 kts | 196° |
| 2026-05-07 17:04 | 44.87215 | -74.11337 | 24307 ft | 378 kts | 196° |
| 2026-05-07 17:05 | 44.84606 | -74.11833 | 24684 ft | 380 kts | 197° |
| 2026-05-07 17:05 | 44.81983 | -74.12333 | 25064 ft | 382 kts | 197° |
| 2026-05-07 17:05 | 44.79340 | -74.12830 | 25438 ft | 384 kts | 197° |
| 2026-05-07 17:05 | 44.76683 | -74.13321 | 25817 ft | 386 kts | 197° |
| 2026-05-07 17:06 | 44.74012 | -74.13809 | 26189 ft | 390 kts | 195° |
| 2026-05-07 17:06 | 44.71259 | -74.13929 | 26550 ft | 403 kts | 187° |
| 2026-05-07 17:06 | 44.68439 | -74.13504 | 26909 ft | 410 kts | 183° |
| 2026-05-07 17:06 | 44.65597 | -74.13009 | 27215 ft | 412 kts | 183° |
| 2026-05-07 17:07 | 44.62743 | -74.12512 | 27564 ft | 414 kts | 184° |
| 2026-05-07 17:07 | 44.59873 | -74.12015 | 27907 ft | 417 kts | 184° |
| 2026-05-07 17:07 | 44.56989 | -74.11521 | 28261 ft | 419 kts | 184° |
| 2026-05-07 17:07 | 44.54089 | -74.11029 | 28569 ft | 421 kts | 184° |
| 2026-05-07 17:08 | 44.51173 | -74.10533 | 28896 ft | 423 kts | 184° |
| 2026-05-07 17:08 | 44.48244 | -74.10036 | 29226 ft | 425 kts | 184° |
| 2026-05-07 17:08 | 44.45301 | -74.09541 | 29555 ft | 426 kts | 184° |
| 2026-05-07 17:08 | 44.42365 | -74.09046 | 30012 ft | 425 kts | 185° |
| 2026-05-07 17:09 | 44.39433 | -74.08549 | 30360 ft | 424 kts | 185° |
| 2026-05-07 17:09 | 44.36511 | -74.08051 | 30772 ft | 422 kts | 185° |
| 2026-05-07 17:09 | 44.33641 | -74.07559 | 31173 ft | 421 kts | 185° |
| 2026-05-07 17:09 | 44.30736 | -74.07064 | 31566 ft | 420 kts | 185° |
| 2026-05-07 17:10 | 44.27832 | -74.06574 | 31967 ft | 420 kts | 185° |
| 2026-05-07 17:10 | 44.24932 | -74.06086 | 32265 ft | 420 kts | 185° |
| 2026-05-07 17:10 | 44.22029 | -74.05600 | 32629 ft | 420 kts | 185° |
| 2026-05-07 17:10 | 44.19131 | -74.05113 | 33006 ft | 420 kts | 185° |
| 2026-05-07 17:11 | 44.16231 | -74.04626 | 33411 ft | 419 kts | 185° |
| 2026-05-07 17:11 | 44.13334 | -74.04140 | 33808 ft | 420 kts | 185° |
| 2026-05-07 17:11 | 44.10434 | -74.03649 | 34150 ft | 420 kts | 185° |
| 2026-05-07 17:11 | 44.07539 | -74.03156 | 34458 ft | 420 kts | 185° |
| 2026-05-07 17:12 | 44.04640 | -74.02664 | 34733 ft | 419 kts | 185° |
| 2026-05-07 17:12 | 44.01746 | -74.02174 | 35064 ft | 419 kts | 185° |
| 2026-05-07 17:12 | 43.98855 | -74.01689 | 35368 ft | 418 kts | 185° |
| 2026-05-07 17:12 | 43.95961 | -74.01207 | 35636 ft | 419 kts | 185° |
| 2026-05-07 17:13 | 43.93063 | -74.00723 | 35830 ft | 420 kts | 185° |
| 2026-05-07 17:13 | 43.90151 | -74.00243 | 35882 ft | 424 kts | 185° |
| 2026-05-07 17:13 | 43.84280 | -73.99267 | 35870 ft | 424 kts | 185° |
| 2026-05-07 17:14 | 43.78429 | -73.98275 | 35876 ft | 423 kts | 186° |
| 2026-05-07 17:14 | 43.72579 | -73.97300 | 35881 ft | 424 kts | 185° |
| 2026-05-07 17:15 | 43.66726 | -73.96330 | 35884 ft | 423 kts | 185° |
| 2026-05-07 17:15 | 43.60877 | -73.95368 | 35894 ft | 423 kts | 186° |
| 2026-05-07 17:16 | 43.55027 | -73.94412 | 35895 ft | 424 kts | 185° |
| 2026-05-07 17:16 | 43.49167 | -73.93449 | 35892 ft | 424 kts | 185° |
| 2026-05-07 17:17 | 43.43305 | -73.92481 | 35864 ft | 424 kts | 186° |
| 2026-05-07 17:17 | 43.37443 | -73.91524 | 35894 ft | 424 kts | 186° |
| 2026-05-07 17:18 | 43.31585 | -73.90572 | 35901 ft | 424 kts | 186° |
| 2026-05-07 17:18 | 43.25731 | -73.89613 | 35867 ft | 423 kts | 186° |
| 2026-05-07 17:19 | 43.19921 | -73.88650 | 35896 ft | 422 kts | 186° |
| 2026-05-07 17:19 | 43.14089 | -73.87692 | 35912 ft | 422 kts | 186° |
| 2026-05-07 17:20 | 43.08260 | -73.86750 | 35917 ft | 422 kts | 186° |
| 2026-05-07 17:20 | 43.03372 | -73.85963 | 35914 ft | 422 kts | 187° |
| 2026-05-07 17:21 | 42.97551 | -73.85023 | 35932 ft | 421 kts | 187° |
| 2026-05-07 17:21 | 42.91777 | -73.84093 | 35936 ft | 421 kts | 187° |
| 2026-05-07 17:22 | 42.85963 | -73.83146 | 35895 ft | 419 kts | 187° |
| 2026-05-07 17:22 | 42.80176 | -73.82216 | 35928 ft | 418 kts | 187° |
| 2026-05-07 17:23 | 42.74408 | -73.81356 | 35939 ft | 410 kts | 192° |
| 2026-05-07 17:23 | 42.68773 | -73.81331 | 35944 ft | 404 kts | 194° |
| 2026-05-07 17:24 | 42.63161 | -73.81369 | 35924 ft | 403 kts | 194° |
| 2026-05-07 17:24 | 42.57556 | -73.81394 | 35937 ft | 402 kts | 194° |
| 2026-05-07 17:25 | 42.51967 | -73.81427 | 35941 ft | 401 kts | 194° |
| 2026-05-07 17:25 | 42.46391 | -73.81441 | 35876 ft | 399 kts | 195° |
| 2026-05-07 17:26 | 42.40856 | -73.81448 | 35912 ft | 397 kts | 195° |
| 2026-05-07 17:26 | 42.35332 | -73.81470 | 35923 ft | 396 kts | 195° |
| 2026-05-07 17:27 | 42.29821 | -73.81499 | 35928 ft | 395 kts | 195° |
| 2026-05-07 17:27 | 42.24326 | -73.81519 | 35888 ft | 393 kts | 196° |
| 2026-05-07 17:28 | 42.18871 | -73.81539 | 35909 ft | 391 kts | 196° |
| 2026-05-07 17:28 | 42.13433 | -73.81558 | 35914 ft | 390 kts | 196° |
| 2026-05-07 17:29 | 42.08003 | -73.81588 | 35913 ft | 390 kts | 196° |
| 2026-05-07 17:29 | 42.02667 | -73.81939 | 35883 ft | 370 kts | 205° |
| 2026-05-07 17:30 | 42.00229 | -73.82792 | 35896 ft | 355 kts | 213° |
| 2026-05-07 17:30 | 41.98003 | -73.84090 | 35902 ft | 343 kts | 220° |
| 2026-05-07 17:30 | 41.93851 | -73.87186 | 35907 ft | 341 kts | 220° |
| 2026-05-07 17:31 | 41.89723 | -73.90250 | 35914 ft | 342 kts | 220° |
| 2026-05-07 17:31 | 41.85558 | -73.93328 | 35880 ft | 342 kts | 220° |
| 2026-05-07 17:32 | 41.81397 | -73.96401 | 35893 ft | 341 kts | 220° |
| 2026-05-07 17:32 | 41.77235 | -73.99466 | 35896 ft | 341 kts | 220° |
| 2026-05-07 17:33 | 41.73022 | -74.02437 | 35929 ft | 350 kts | 214° |
| 2026-05-07 17:33 | 41.70631 | -74.03375 | 35923 ft | 368 kts | 204° |
| 2026-05-07 17:33 | 41.68050 | -74.03804 | 35922 ft | 375 kts | 201° |
| 2026-05-07 17:34 | 41.62870 | -74.04574 | 35921 ft | 374 kts | 202° |
| 2026-05-07 17:34 | 41.57700 | -74.05375 | 35920 ft | 374 kts | 202° |
| 2026-05-07 17:35 | 41.52535 | -74.06185 | 35917 ft | 374 kts | 202° |
| 2026-05-07 17:35 | 41.47363 | -74.06976 | 35880 ft | 374 kts | 202° |
| 2026-05-07 17:36 | 41.42201 | -74.07771 | 35903 ft | 373 kts | 202° |
| 2026-05-07 17:36 | 41.37095 | -74.08730 | 35917 ft | 360 kts | 209° |
| 2026-05-07 17:37 | 41.34788 | -74.09793 | 35920 ft | 344 kts | 217° |
| 2026-05-07 17:37 | 41.32724 | -74.11296 | 35925 ft | 334 kts | 224° |
| 2026-05-07 17:37 | 41.28827 | -74.14654 | 35882 ft | 333 kts | 224° |
| 2026-05-07 17:38 | 41.24954 | -74.17959 | 35913 ft | 333 kts | 224° |
| 2026-05-07 17:38 | 41.21041 | -74.21307 | 35922 ft | 332 kts | 223° |
| 2026-05-07 17:39 | 41.17180 | -74.24598 | 35931 ft | 332 kts | 223° |
| 2026-05-07 17:39 | 41.13285 | -74.27906 | 35930 ft | 332 kts | 223° |
| 2026-05-07 17:40 | 41.09385 | -74.31196 | 35887 ft | 332 kts | 224° |
| 2026-05-07 17:40 | 41.05191 | -74.33952 | 35906 ft | 365 kts | 202° |
| 2026-05-07 17:41 | 41.02511 | -74.33737 | 35910 ft | 412 kts | 181° |
| 2026-05-07 17:41 | 40.99780 | -74.32025 | 35906 ft | 461 kts | 160° |
| 2026-05-07 17:41 | 40.97376 | -74.28963 | 35897 ft | 500 kts | 143° |
| 2026-05-07 17:41 | 40.95422 | -74.25003 | 35892 ft | 524 kts | 131° |
| 2026-05-07 17:42 | 40.92252 | -74.16142 | 35886 ft | 535 kts | 128° |
| 2026-05-07 17:42 | 40.90633 | -74.11746 | 35150 ft | 536 kts | 131° |
| 2026-05-07 17:42 | 40.88801 | -74.07428 | 33989 ft | 541 kts | 136° |
| 2026-05-07 17:43 | 40.86777 | -74.03235 | 32773 ft | 541 kts | 139° |
| 2026-05-07 17:43 | 40.84646 | -73.99136 | 31724 ft | 540 kts | 140° |
| 2026-05-07 17:43 | 40.82508 | -73.95104 | 31307 ft | 529 kts | 140° |
| 2026-05-07 17:43 | 40.80298 | -73.91353 | 30529 ft | 502 kts | 152° |
| 2026-05-07 17:44 | 40.77657 | -73.88768 | 29212 ft | 465 kts | 170° |
| 2026-05-07 17:44 | 40.74739 | -73.87258 | 27905 ft | 440 kts | 181° |
| 2026-05-07 17:44 | 40.71800 | -73.86474 | 26728 ft | 423 kts | 188° |
| 2026-05-07 17:44 | 40.68907 | -73.86254 | 25629 ft | 409 kts | 195° |
| 2026-05-07 17:45 | 40.66140 | -73.86611 | 24619 ft | 392 kts | 203° |
| 2026-05-07 17:45 | 40.63566 | -73.87552 | 23634 ft | 377 kts | 211° |
| 2026-05-07 17:45 | 40.61244 | -73.89017 | 22594 ft | 365 kts | 218° |
| 2026-05-07 17:45 | 40.59194 | -73.90908 | 21589 ft | 356 kts | 226° |
| 2026-05-07 17:46 | 40.57428 | -73.93152 | 20637 ft | 351 kts | 232° |
| 2026-05-07 17:46 | 40.55947 | -73.95689 | 19737 ft | 348 kts | 239° |
| 2026-05-07 17:46 | 40.54771 | -73.98457 | 18856 ft | 347 kts | 246° |
| 2026-05-07 17:46 | 40.53917 | -74.01425 | 17991 ft | 349 kts | 253° |
| 2026-05-07 17:47 | 40.53406 | -74.04555 | 17000 ft | 352 kts | 260° |
| 2026-05-07 17:47 | 40.53265 | -74.07786 | 16022 ft | 357 kts | 268° |
| 2026-05-07 17:47 | 40.53510 | -74.11062 | 15055 ft | 363 kts | 275° |
| 2026-05-07 17:47 | 40.54149 | -74.14300 | 14126 ft | 371 kts | 283° |
| 2026-05-07 17:48 | 40.55183 | -74.17442 | 13127 ft | 378 kts | 290° |
| 2026-05-07 17:48 | 40.56475 | -74.20452 | 12372 ft | 377 kts | 295° |
| 2026-05-07 17:48 | 40.57900 | -74.23322 | 11680 ft | 374 kts | 298° |
| 2026-05-07 17:48 | 40.59395 | -74.26104 | 10982 ft | 370 kts | 299° |
| 2026-05-07 17:49 | 40.60899 | -74.28831 | 10317 ft | 365 kts | 300° |
| 2026-05-07 17:49 | 40.62362 | -74.31496 | 9999 ft | 350 kts | 300° |
| 2026-05-07 17:49 | 40.63725 | -74.34012 | 9999 ft | 325 kts | 299° |
| 2026-05-07 17:49 | 40.64987 | -74.36328 | 10009 ft | 307 kts | 301° |
| 2026-05-07 17:50 | 40.66329 | -74.38412 | 10006 ft | 292 kts | 306° |
| 2026-05-07 17:50 | 40.67797 | -74.40190 | 10007 ft | 281 kts | 313° |
| 2026-05-07 17:50 | 40.69368 | -74.41648 | 10008 ft | 272 kts | 319° |
| 2026-05-07 17:50 | 40.71006 | -74.42805 | 10007 ft | 263 kts | 325° |
| 2026-05-07 17:51 | 40.72686 | -74.43674 | 10021 ft | 256 kts | 332° |
| 2026-05-07 17:51 | 40.74376 | -74.44273 | 10013 ft | 248 kts | 337° |
| 2026-05-07 17:51 | 40.76050 | -74.44624 | 10012 ft | 241 kts | 342° |
| 2026-05-07 17:51 | 40.77732 | -74.44744 | 10014 ft | 244 kts | 348° |
| 2026-05-07 17:52 | 40.79443 | -74.44629 | 10035 ft | 249 kts | 355° |
| 2026-05-07 17:52 | 40.81175 | -74.44263 | 10007 ft | 255 kts | 1° |
| 2026-05-07 17:52 | 40.82902 | -74.43635 | 10008 ft | 260 kts | 8° |
| 2026-05-07 17:52 | 40.84597 | -74.42741 | 10008 ft | 266 kts | 16° |
| 2026-05-07 17:53 | 40.86236 | -74.41560 | 10007 ft | 271 kts | 24° |
| 2026-05-07 17:53 | 40.87787 | -74.40103 | 10007 ft | 276 kts | 31° |
| 2026-05-07 17:53 | 40.89218 | -74.38396 | 10018 ft | 280 kts | 39° |
| 2026-05-07 17:53 | 40.90501 | -74.36433 | 10017 ft | 284 kts | 47° |
| 2026-05-07 17:54 | 40.91602 | -74.34254 | 10026 ft | 287 kts | 56° |
| 2026-05-07 17:54 | 40.92508 | -74.31887 | 10021 ft | 289 kts | 64° |
| 2026-05-07 17:54 | 40.93186 | -74.29374 | 10017 ft | 291 kts | 73° |
| 2026-05-07 17:54 | 40.93635 | -74.26732 | 9601 ft | 302 kts | 81° |
| 2026-05-07 17:55 | 40.93821 | -74.23917 | 8736 ft | 313 kts | 90° |
| 2026-05-07 17:55 | 40.93703 | -74.21016 | 7887 ft | 319 kts | 97° |
| 2026-05-07 17:55 | 40.93278 | -74.18115 | 7040 ft | 324 kts | 105° |
| 2026-05-07 17:55 | 40.92542 | -74.15291 | 6323 ft | 326 kts | 113° |
| 2026-05-07 17:56 | 40.91517 | -74.12652 | 6089 ft | 318 kts | 121° |
| 2026-05-07 17:56 | 40.90330 | -74.10255 | 6000 ft | 305 kts | 124° |
| 2026-05-07 17:56 | 40.89158 | -74.08013 | 6010 ft | 289 kts | 124° |
| 2026-05-07 17:56 | 40.88040 | -74.05883 | 6005 ft | 275 kts | 124° |
| 2026-05-07 17:57 | 40.86974 | -74.03854 | 6015 ft | 262 kts | 124° |
| 2026-05-07 17:57 | 40.86299 | -74.02568 | 5995 ft | 252 kts | 124° |
| 2026-05-07 17:57 | 40.84991 | -74.00078 | 5994 ft | 245 kts | 124° |
| 2026-05-07 17:57 | 40.84035 | -73.98251 | 5992 ft | 246 kts | 124° |
| 2026-05-07 17:58 | 40.83060 | -73.96390 | 6000 ft | 246 kts | 124° |
| 2026-05-07 17:58 | 40.82086 | -73.94531 | 6000 ft | 246 kts | 124° |
| 2026-05-07 17:58 | 40.81112 | -73.92673 | 5991 ft | 246 kts | 124° |
| 2026-05-07 17:58 | 40.80138 | -73.90816 | 5992 ft | 247 kts | 124° |
| 2026-05-07 17:59 | 40.79159 | -73.88952 | 5999 ft | 246 kts | 124° |
| 2026-05-07 17:59 | 40.78187 | -73.87088 | 5999 ft | 246 kts | 123° |
| 2026-05-07 17:59 | 40.77232 | -73.85213 | 5989 ft | 246 kts | 123° |
| 2026-05-07 17:59 | 40.76283 | -73.83343 | 5846 ft | 244 kts | 123° |
| 2026-05-07 18:00 | 40.75343 | -73.81490 | 5592 ft | 242 kts | 123° |
| 2026-05-07 18:00 | 40.74414 | -73.79656 | 5329 ft | 239 kts | 123° |
| 2026-05-07 18:00 | 40.73494 | -73.77848 | 5067 ft | 236 kts | 123° |
| 2026-05-07 18:00 | 40.72585 | -73.76074 | 4851 ft | 230 kts | 123° |
| 2026-05-07 18:01 | 40.71698 | -73.74349 | 4546 ft | 229 kts | 123° |
| 2026-05-07 18:01 | 40.70797 | -73.72616 | 4213 ft | 229 kts | 123° |
| 2026-05-07 18:01 | 40.69896 | -73.70888 | 3898 ft | 228 kts | 123° |
| 2026-05-07 18:01 | 40.69007 | -73.69178 | 3639 ft | 223 kts | 123° |
| 2026-05-07 18:02 | 40.67334 | -73.65950 | 3383 ft | 206 kts | 123° |
| 2026-05-07 18:02 | 40.66524 | -73.64399 | 3109 ft | 206 kts | 123° |
| 2026-05-07 18:02 | 40.65718 | -73.62861 | 3002 ft | 204 kts | 123° |
| 2026-05-07 18:03 | 40.64918 | -73.61315 | 2999 ft | 206 kts | 123° |
| 2026-05-07 18:03 | 40.64104 | -73.59754 | 3014 ft | 206 kts | 123° |
| 2026-05-07 18:03 | 40.63292 | -73.58197 | 3003 ft | 205 kts | 123° |
| 2026-05-07 18:03 | 40.62492 | -73.56639 | 3001 ft | 205 kts | 123° |
| 2026-05-07 18:04 | 40.61952 | -73.55616 | 3007 ft | 207 kts | 128° |
| 2026-05-07 18:04 | 40.60814 | -73.54483 | 3005 ft | 208 kts | 160° |
| 2026-05-07 18:04 | 40.59408 | -73.54278 | 3005 ft | 204 kts | 193° |
| 2026-05-07 18:04 | 40.58111 | -73.54981 | 3008 ft | 201 kts | 219° |
| 2026-05-07 18:05 | 40.57198 | -73.56327 | 3004 ft | 198 kts | 245° |
| 2026-05-07 18:05 | 40.56825 | -73.58041 | 3007 ft | 195 kts | 270° |
| 2026-05-07 18:05 | 40.57047 | -73.59771 | 2882 ft | 192 kts | 295° |
| 2026-05-07 18:05 | 40.57693 | -73.61270 | 2687 ft | 183 kts | 302° |
| 2026-05-07 18:06 | 40.58332 | -73.62659 | 2435 ft | 172 kts | 302° |
| 2026-05-07 18:06 | 40.58930 | -73.63969 | 2201 ft | 162 kts | 302° |
| 2026-05-07 18:06 | 40.59501 | -73.65218 | 1996 ft | 157 kts | 302° |
| 2026-05-07 18:06 | 40.60055 | -73.66431 | 1776 ft | 151 kts | 301° |
| 2026-05-07 18:07 | 40.60576 | -73.67576 | 1557 ft | 141 kts | 302° |
| 2026-05-07 18:07 | 40.61073 | -73.68666 | 1394 ft | 137 kts | 302° |
| 2026-05-07 18:07 | 40.61554 | -73.69734 | 1277 ft | 134 kts | 302° |
| 2026-05-07 18:07 | 40.62025 | -73.70786 | 1090 ft | 132 kts | 301° |
| 2026-05-07 18:08 | 40.62499 | -73.71817 | 857 ft | 131 kts | 303° |
| 2026-05-07 18:08 | 40.62963 | -73.72843 | 681 ft | 132 kts | 303° |
| 2026-05-07 18:08 | 40.63439 | -73.73874 | 473 ft | 132 kts | 304° |
| 2026-05-07 18:08 | 40.63897 | -73.74897 | 304 ft | 128 kts | 305° |
| 2026-05-07 18:09 | 40.64354 | -73.75905 | 119 ft | 128 kts | 306° |
| 2026-05-07 18:09 | 40.64799 | -73.76872 | 21 ft | 111 kts | 301° |
| 2026-05-07 18:09 | 40.65112 | -73.77558 | 19 ft | 62 kts | 301° |
| 2026-05-07 18:09 | 40.65232 | -73.77838 | 19 ft | 19 kts | 285° |
| 2026-05-07 18:10 | 40.65184 | -73.77949 | 21 ft | 11 kts | 212° |
| 2026-05-07 18:10 | 40.65138 | -73.77987 | 23 ft | 7 kts | 212° |
| 2026-05-07 18:10 | 40.65096 | -73.78002 | 23 ft | 5 kts | 149° |
| 2026-05-07 18:10 | 40.65069 | -73.77946 | 23 ft | 9 kts | 121° |
| 2026-05-07 18:11 | 40.65029 | -73.77857 | 21 ft | 13 kts | 121° |
| 2026-05-07 18:11 | 40.64977 | -73.77743 | 20 ft | 15 kts | 121° |
| 2026-05-07 18:11 | 40.64921 | -73.77617 | 22 ft | 17 kts | 120° |
| 2026-05-07 18:11 | 40.64869 | -73.77502 | 21 ft | 15 kts | 121° |
| 2026-05-07 18:12 | 40.64816 | -73.77387 | 25 ft | 15 kts | 121° |
| 2026-05-07 18:12 | 40.64761 | -73.77265 | 23 ft | 17 kts | 121° |
| 2026-05-07 18:12 | 40.64693 | -73.77131 | 23 ft | 15 kts | 135° |
| 2026-05-07 18:12 | 40.64619 | -73.77089 | 22 ft | 13 kts | 174° |
| 2026-05-07 18:13 | 40.64520 | -73.77089 | 21 ft | 15 kts | 180° |
| 2026-05-07 18:13 | 40.64443 | -73.77118 | 23 ft | 8 kts | 248° |
| 2026-05-07 18:13 | 40.64458 | -73.77199 | 23 ft | 11 kts | 300° |
| 2026-05-07 18:13 | 40.64473 | -73.77284 | 23 ft | 8 kts | 268° |
| 2026-05-07 18:14 | 40.64472 | -73.77334 | 23 ft | 1 kts | 269° |
| 2026-05-07 18:14 | 40.64472 | -73.77355 | 23 ft | 3 kts | 269° |
| 2026-05-07 18:14 | 40.64491 | -73.77383 | 24 ft | 5 kts | 336° |
| 2026-05-07 18:14 | 40.64515 | -73.77386 | 23 ft | 2 kts | 359° |
| 2026-05-07 18:15 | 40.64526 | -73.77386 | 23 ft | 1 kts | 358° |
| 2026-05-07 18:15 | 40.64530 | -73.77386 | 23 ft | 0 kts | 357° |